createdAt,value
2018-09-09T00:00:32.453Z,16.43
2018-09-09T00:03:03.489Z,16.42
2018-09-09T00:05:34.465Z,16.23
2018-09-09T00:08:05.515Z,16.40
2018-09-09T00:10:36.482Z,16.46
2018-09-09T00:13:07.578Z,16.47
2018-09-09T00:15:38.505Z,16.16
2018-09-09T00:18:09.522Z,16.08
2018-09-09T00:20:40.493Z,16.01
2018-09-09T00:23:11.490Z,16.05
2018-09-09T00:25:42.501Z,16.13
2018-09-09T00:28:13.498Z,16.09
2018-09-09T00:30:44.510Z,15.98
2018-09-09T00:33:15.477Z,16.02
2018-09-09T00:35:46.490Z,16.06
2018-09-09T00:38:17.516Z,15.98
2018-09-09T00:40:48.469Z,16.00
2018-09-09T00:43:19.486Z,16.07
2018-09-09T00:45:50.491Z,15.91
2018-09-09T00:48:21.522Z,15.89
2018-09-09T00:50:57.679Z,15.94
2018-09-09T00:53:33.573Z,15.85
2018-09-09T00:56:04.498Z,15.86
2018-09-09T00:58:35.546Z,15.97
2018-09-09T01:01:12.228Z,15.87
2018-09-09T01:03:43.362Z,15.92
2018-09-09T01:06:14.354Z,15.98
2018-09-09T01:08:45.376Z,15.86
2018-09-09T01:11:16.401Z,15.81
2018-09-09T01:13:47.461Z,15.82
2018-09-09T01:16:18.453Z,15.79
2018-09-09T01:18:49.493Z,15.79
2018-09-09T01:21:20.469Z,15.78
2018-09-09T01:23:51.481Z,15.86
2018-09-09T01:26:22.439Z,15.79
2018-09-09T01:28:53.453Z,15.61
2018-09-09T01:31:24.472Z,15.49
2018-09-09T01:33:55.480Z,15.46
2018-09-09T01:36:26.457Z,15.18
2018-09-09T01:38:57.480Z,15.16
2018-09-09T01:41:28.610Z,15.09
2018-09-09T01:43:59.479Z,14.98
2018-09-09T01:46:30.474Z,14.95
2018-09-09T01:49:01.443Z,14.80
2018-09-09T01:51:32.489Z,14.81
2018-09-09T01:54:03.505Z,14.77
2018-09-09T01:56:34.506Z,14.71
2018-09-09T01:59:05.545Z,14.73
2018-09-09T02:01:36.493Z,14.60
2018-09-09T02:04:07.505Z,14.56
2018-09-09T02:06:38.503Z,14.60
2018-09-09T02:09:09.590Z,14.51
2018-09-09T02:11:40.479Z,14.50
2018-09-09T02:14:11.516Z,14.67
2018-09-09T02:16:42.486Z,14.54
2018-09-09T02:19:13.495Z,14.46
2018-09-09T02:21:44.490Z,14.55
2018-09-09T02:24:15.521Z,14.49
2018-09-09T02:26:46.486Z,14.36
2018-09-09T02:29:17.506Z,14.38
2018-09-09T02:31:48.495Z,14.49
2018-09-09T02:34:19.490Z,14.61
2018-09-09T02:36:50.486Z,14.59
2018-09-09T02:39:21.477Z,14.39
2018-09-09T02:41:52.502Z,14.27
2018-09-09T02:44:23.510Z,14.22
2018-09-09T02:46:54.481Z,14.26
2018-09-09T02:49:25.522Z,14.18
2018-09-09T02:51:56.520Z,13.97
2018-09-09T02:54:27.526Z,14.03
2018-09-09T02:56:58.733Z,14.00
2018-09-09T02:59:31.041Z,13.97
2018-09-09T03:02:02.295Z,13.93
2018-09-09T03:04:33.413Z,13.92
2018-09-09T03:07:04.514Z,13.88
2018-09-09T03:09:35.511Z,13.88
2018-09-09T03:12:06.514Z,13.83
2018-09-09T03:14:37.520Z,13.81
2018-09-09T03:17:08.482Z,13.71
2018-09-09T03:19:39.501Z,13.81
2018-09-09T03:22:10.497Z,13.70
2018-09-09T03:24:41.501Z,13.68
2018-09-09T03:27:12.489Z,13.96
2018-09-09T03:29:43.525Z,13.93
2018-09-09T03:32:14.489Z,13.92
2018-09-09T03:34:45.505Z,13.85
2018-09-09T03:37:16.501Z,13.93
2018-09-09T03:39:47.494Z,13.70
2018-09-09T03:42:18.473Z,13.53
2018-09-09T03:44:49.505Z,13.45
2018-09-09T03:47:20.629Z,13.48
2018-09-09T03:49:51.799Z,13.53
2018-09-09T03:52:22.661Z,13.42
2018-09-09T03:54:53.576Z,13.38
2018-09-09T03:57:24.602Z,13.29
2018-09-09T03:59:55.594Z,13.29
2018-09-09T04:02:26.509Z,13.25
2018-09-09T04:04:57.497Z,13.27
2018-09-09T04:07:28.502Z,13.28
2018-09-09T04:09:59.484Z,13.23
2018-09-09T04:12:30.485Z,13.19
2018-09-09T04:15:01.454Z,13.21
2018-09-09T04:17:32.452Z,13.15
2018-09-09T04:20:03.482Z,13.08
2018-09-09T04:22:34.465Z,13.01
2018-09-09T04:25:05.475Z,13.00
2018-09-09T04:27:36.448Z,13.04
2018-09-09T04:30:07.508Z,12.96
2018-09-09T04:32:38.458Z,13.10
2018-09-09T04:35:09.522Z,13.09
2018-09-09T04:37:40.473Z,13.05
2018-09-09T04:40:11.469Z,13.17
2018-09-09T04:45:12.430Z,13.03
2018-09-09T04:47:43.465Z,13.21
2018-09-09T04:50:14.485Z,13.23
2018-09-09T04:52:45.457Z,13.29
2018-09-09T04:55:16.457Z,13.25
2018-09-09T04:57:47.473Z,13.31
2018-09-09T05:00:18.457Z,13.06
2018-09-09T05:02:49.443Z,13.03
2018-09-09T05:05:20.502Z,13.11
2018-09-09T05:07:51.514Z,13.10
2018-09-09T05:10:22.498Z,13.15
2018-09-09T05:12:53.453Z,13.23
2018-09-09T05:15:24.488Z,13.11
2018-09-09T05:17:55.462Z,13.27
2018-09-09T05:20:26.471Z,13.25
2018-09-09T05:22:57.437Z,13.23
2018-09-09T05:25:28.651Z,13.17
2018-09-09T05:27:59.476Z,13.23
2018-09-09T05:30:30.460Z,13.17
2018-09-09T05:33:01.476Z,13.11
2018-09-09T05:35:32.469Z,13.27
2018-09-09T05:38:03.492Z,13.31
2018-09-09T05:40:34.448Z,13.16
2018-09-09T05:43:05.522Z,13.12
2018-09-09T05:45:36.481Z,13.00
2018-09-09T05:48:07.469Z,12.97
2018-09-09T05:50:38.509Z,12.91
2018-09-09T05:53:09.453Z,12.89
2018-09-09T05:55:40.436Z,12.80
2018-09-09T05:58:11.468Z,12.92
2018-09-09T06:00:42.477Z,13.30
2018-09-09T06:03:13.488Z,13.21
2018-09-09T06:05:44.494Z,12.94
2018-09-09T06:08:15.469Z,13.03
2018-09-09T06:10:50.357Z,13.07
2018-09-09T06:13:21.333Z,13.23
2018-09-09T06:15:52.400Z,13.28
2018-09-09T06:18:23.550Z,13.59
2018-09-09T06:20:54.497Z,13.53
2018-09-09T06:23:25.518Z,13.72
2018-09-09T06:25:56.522Z,13.93
2018-09-09T06:28:27.494Z,13.94
2018-09-09T06:30:58.498Z,14.19
2018-09-09T06:33:29.562Z,14.28
2018-09-09T06:36:00.534Z,14.49
2018-09-09T06:38:31.538Z,14.63
2018-09-09T06:41:02.456Z,14.57
2018-09-09T06:43:33.485Z,14.77
2018-09-09T06:46:04.501Z,14.71
2018-09-09T06:48:35.476Z,14.87
2018-09-09T06:51:06.583Z,14.77
2018-09-09T06:53:37.545Z,14.51
2018-09-09T06:56:11.547Z,14.29
2018-09-09T06:58:42.495Z,14.46
2018-09-09T07:01:13.493Z,14.50
2018-09-09T07:03:44.502Z,14.37
2018-09-09T07:06:15.494Z,14.62
2018-09-09T07:08:46.478Z,14.57
2018-09-09T07:11:17.541Z,14.75
2018-09-09T07:13:48.516Z,14.62
2018-09-09T07:16:19.602Z,14.80
2018-09-09T07:18:50.478Z,14.73
2018-09-09T07:21:21.492Z,14.94
2018-09-09T07:23:52.489Z,14.97
2018-09-09T07:26:23.473Z,15.16
2018-09-09T07:28:54.493Z,15.02
2018-09-09T07:31:25.513Z,15.24
2018-09-09T07:33:56.493Z,15.51
2018-09-09T07:36:27.531Z,15.55
2018-09-09T07:38:58.485Z,15.45
2018-09-09T07:41:29.513Z,15.62
2018-09-09T07:44:00.474Z,15.74
2018-09-09T07:46:31.664Z,15.85
2018-09-09T07:49:02.548Z,16.10
2018-09-09T07:51:33.514Z,16.26
2018-09-09T07:54:04.541Z,16.43
2018-09-09T07:56:35.546Z,16.57
2018-09-09T07:59:06.478Z,16.88
2018-09-09T08:01:37.516Z,16.95
2018-09-09T08:04:08.481Z,17.21
2018-09-09T08:06:39.471Z,17.34
2018-09-09T08:09:11.449Z,17.41
2018-09-09T08:11:42.474Z,17.56
2018-09-09T08:14:13.476Z,17.70
2018-09-09T08:16:44.565Z,17.84
2018-09-09T08:19:15.488Z,18.02
2018-09-09T08:21:46.502Z,18.50
2018-09-09T08:24:17.525Z,18.41
2018-09-09T08:26:48.502Z,19.07
2018-09-09T08:29:19.505Z,19.26
2018-09-09T08:31:50.516Z,19.41
2018-09-09T08:34:22.497Z,20.10
2018-09-09T08:36:53.541Z,20.21
2018-09-09T08:39:24.485Z,19.93
2018-09-09T08:41:55.552Z,19.97
2018-09-09T08:44:26.490Z,20.20
2018-09-09T08:46:57.534Z,20.94
2018-09-09T08:49:28.481Z,21.04
2018-09-09T08:51:59.566Z,20.84
2018-09-09T08:54:30.460Z,21.66
2018-09-09T08:57:01.554Z,21.93
2018-09-09T08:59:32.509Z,21.99
2018-09-09T09:02:03.520Z,22.49
2018-09-09T09:04:34.530Z,22.39
2018-09-09T09:07:05.580Z,21.91
2018-09-09T09:09:36.512Z,22.09
2018-09-09T09:12:12.459Z,22.35
2018-09-09T09:14:44.436Z,23.07
2018-09-09T09:17:15.563Z,22.88
2018-09-09T09:20:37.537Z,24.05
2018-09-09T09:23:08.472Z,23.67
2018-09-09T09:25:43.362Z,23.91
2018-09-09T09:28:14.461Z,24.74
2018-09-09T09:30:45.520Z,24.28
2018-09-09T09:33:16.480Z,24.35
2018-09-09T09:35:51.736Z,23.79
2018-09-09T09:38:23.408Z,23.89
2018-09-09T09:40:54.458Z,23.60
2018-09-09T09:43:25.447Z,23.86
2018-09-09T09:45:56.442Z,23.79
2018-09-09T09:48:27.460Z,22.82
2018-09-09T09:50:58.445Z,23.29
2018-09-09T09:53:29.502Z,23.01
2018-09-09T09:56:00.491Z,23.22
2018-09-09T09:58:31.445Z,22.66
2018-09-09T10:01:03.308Z,22.62
2018-09-09T10:03:34.389Z,22.92
2018-09-09T10:06:05.374Z,22.61
2018-09-09T10:08:36.365Z,22.60
2018-09-09T10:13:38.010Z,22.36
2018-09-09T10:16:09.286Z,22.52
2018-09-09T10:18:39.399Z,22.50
2018-09-09T10:21:11.389Z,22.66
2018-09-09T10:23:42.547Z,22.45
2018-09-09T10:26:13.517Z,22.50
2018-09-09T10:28:44.468Z,22.45
2018-09-09T10:31:15.472Z,22.43
2018-09-09T10:33:46.465Z,22.38
2018-09-09T10:36:17.517Z,22.56
2018-09-09T10:38:48.489Z,22.68
2018-09-09T10:41:19.619Z,22.49
2018-09-09T10:43:50.547Z,22.47
2018-09-09T10:46:21.593Z,22.62
2018-09-09T10:48:52.504Z,22.51
2018-09-09T10:51:23.488Z,22.67
2018-09-09T10:53:54.509Z,22.95
2018-09-09T10:56:25.496Z,23.26
2018-09-09T10:58:56.627Z,22.94
2018-09-09T11:01:27.505Z,23.32
2018-09-09T11:03:58.495Z,23.69
2018-09-09T11:06:29.506Z,23.69
2018-09-09T11:09:00.476Z,23.64
2018-09-09T11:11:31.489Z,23.88
2018-09-09T11:14:02.459Z,24.34
2018-09-09T11:16:33.503Z,24.69
2018-09-09T11:19:04.421Z,24.85
2018-09-09T11:21:35.457Z,25.07
2018-09-09T11:24:06.548Z,25.65
2018-09-09T11:26:37.513Z,25.95
2018-09-09T11:29:08.781Z,26.36
2018-09-09T11:31:39.598Z,26.08
2018-09-09T11:34:10.526Z,27.38
2018-09-09T11:36:41.464Z,27.72
2018-09-09T11:39:12.493Z,27.33
2018-09-09T11:41:43.485Z,27.13
2018-09-09T11:44:14.445Z,27.59
2018-09-09T11:46:45.441Z,27.09
2018-09-09T11:49:16.461Z,27.49
2018-09-09T11:51:47.452Z,28.38
2018-09-09T11:54:18.465Z,27.85
2018-09-09T11:56:49.489Z,29.07
2018-09-09T11:59:20.476Z,28.56
2018-09-09T12:01:51.454Z,29.42
2018-09-09T12:04:22.525Z,29.11
2018-09-09T12:06:53.444Z,29.62
2018-09-09T12:09:24.506Z,29.93
2018-09-09T12:11:55.521Z,28.84
2018-09-09T12:14:26.493Z,29.54
2018-09-09T12:16:57.462Z,28.90
2018-09-09T12:19:28.498Z,29.19
2018-09-09T12:21:59.506Z,30.00
2018-09-09T12:24:30.561Z,29.84
2018-09-09T12:27:01.484Z,29.57
2018-09-09T12:29:32.674Z,27.71
2018-09-09T12:32:03.567Z,29.24
2018-09-09T12:34:34.514Z,29.33
2018-09-09T12:37:05.532Z,29.74
2018-09-09T12:39:36.514Z,30.11
2018-09-09T12:42:07.493Z,29.61
2018-09-09T12:44:43.617Z,30.04
2018-09-09T12:47:19.785Z,29.68
2018-09-09T12:49:53.697Z,30.14
2018-09-09T12:52:24.523Z,29.35
2018-09-09T12:54:55.495Z,28.93
2018-09-09T12:57:26.502Z,28.86
2018-09-09T12:59:57.623Z,30.86
2018-09-09T13:02:28.593Z,31.01
2018-09-09T13:04:59.497Z,30.72
2018-09-09T13:07:30.554Z,29.58
2018-09-09T13:10:02.487Z,30.15
2018-09-09T13:12:38.773Z,30.18
2018-09-09T13:15:09.605Z,29.13
2018-09-09T13:17:40.475Z,28.77
2018-09-09T13:20:11.502Z,29.59
2018-09-09T13:22:42.497Z,30.42
2018-09-09T13:25:13.544Z,30.33
2018-09-09T13:27:44.505Z,30.18
2018-09-09T13:30:15.502Z,30.32
2018-09-09T13:32:46.493Z,31.48
2018-09-09T13:35:17.495Z,29.54
2018-09-09T13:37:48.456Z,30.64
2018-09-09T13:40:19.480Z,30.77
2018-09-09T13:42:50.499Z,31.28
2018-09-09T13:45:21.481Z,30.11
2018-09-09T13:47:53.343Z,30.54
2018-09-09T13:50:24.358Z,29.98
2018-09-09T13:52:55.344Z,30.08
2018-09-09T13:55:26.357Z,29.99
2018-09-09T13:57:57.377Z,30.31
2018-09-09T14:00:29.293Z,30.08
2018-09-09T14:03:00.796Z,29.73
2018-09-09T14:05:31.652Z,29.11
2018-09-09T14:08:02.486Z,29.81
2018-09-09T14:10:33.521Z,29.35
2018-09-09T14:13:04.448Z,29.53
2018-09-09T14:15:35.502Z,30.14
2018-09-09T14:18:06.614Z,29.46
2018-09-09T14:20:37.493Z,28.71
2018-09-09T14:23:08.496Z,28.88
2018-09-09T14:25:39.491Z,29.64
2018-09-09T14:28:10.545Z,28.51
2018-09-09T14:30:41.493Z,28.50
2018-09-09T14:33:12.457Z,28.31
2018-09-09T14:35:43.465Z,28.51
2018-09-09T14:38:14.520Z,28.01
2018-09-09T14:40:45.493Z,27.88
2018-09-09T14:43:16.513Z,27.83
2018-09-09T14:45:47.493Z,28.05
2018-09-09T14:48:21.570Z,27.61
2018-09-09T14:50:52.488Z,27.63
2018-09-09T14:53:23.537Z,27.44
2018-09-09T14:55:54.498Z,27.09
2018-09-09T14:58:25.505Z,26.61
2018-09-09T15:00:56.537Z,27.39
2018-09-09T15:03:27.579Z,26.41
2018-09-09T15:05:58.493Z,26.77
2018-09-09T15:08:29.436Z,26.80
2018-09-09T15:11:01.224Z,26.95
2018-09-09T15:13:32.343Z,26.57
2018-09-09T15:16:03.361Z,26.42
2018-09-09T15:18:34.348Z,26.64
2018-09-09T15:21:05.383Z,26.67
2018-09-09T15:23:36.393Z,26.43
2018-09-09T15:26:07.658Z,26.60
2018-09-09T15:28:38.536Z,26.28
2018-09-09T15:31:09.456Z,26.24
2018-09-09T15:33:40.477Z,26.31
2018-09-09T15:36:11.482Z,25.81
2018-09-09T15:40:37.470Z,25.89
2018-09-09T15:43:08.453Z,25.93
2018-09-09T15:45:39.437Z,25.79
2018-09-09T15:48:10.462Z,25.86
2018-09-09T15:50:41.409Z,25.81
2018-09-09T15:53:12.425Z,25.78
2018-09-09T15:55:43.465Z,25.74
2018-09-09T15:58:14.440Z,25.73
2018-09-09T16:00:45.461Z,25.70
2018-09-09T16:03:16.551Z,25.61
2018-09-09T16:05:47.414Z,25.72
2018-09-09T16:08:18.518Z,25.74
2018-09-09T16:10:49.477Z,25.53
2018-09-09T16:16:06.453Z,25.65
2018-09-09T16:18:37.470Z,25.45
2018-09-09T16:21:08.477Z,25.53
2018-09-09T16:23:39.525Z,25.52
2018-09-09T16:26:10.514Z,25.37
2018-09-09T16:28:41.504Z,25.43
2018-09-09T16:31:12.457Z,25.15
2018-09-09T16:33:43.487Z,25.19
2018-09-09T16:36:14.599Z,25.18
2018-09-09T16:38:45.496Z,25.21
2018-09-09T16:41:16.472Z,25.06
2018-09-09T16:43:47.489Z,25.15
2018-09-09T16:46:18.483Z,25.13
2018-09-09T16:48:49.640Z,24.94
2018-09-09T16:51:20.532Z,24.78
2018-09-09T16:53:51.477Z,24.87
2018-09-09T16:56:22.493Z,24.76
2018-09-09T16:58:53.481Z,24.74
2018-09-09T17:01:24.489Z,24.64
2018-09-09T17:03:55.497Z,24.64
2018-09-09T17:06:26.502Z,24.62
2018-09-09T17:08:57.478Z,24.56
2018-09-09T17:11:28.430Z,24.44
2018-09-09T17:13:59.535Z,24.37
2018-09-09T17:16:30.433Z,24.30
2018-09-09T17:19:01.430Z,24.26
2018-09-09T17:21:32.479Z,24.31
2018-09-09T17:24:03.489Z,24.16
2018-09-09T17:26:34.471Z,24.05
2018-09-09T17:29:05.454Z,24.08
2018-09-09T17:31:36.441Z,24.07
2018-09-09T17:34:07.486Z,23.98
2018-09-09T17:36:38.489Z,23.94
2018-09-09T17:39:11.526Z,23.90
2018-09-09T17:41:42.521Z,23.79
2018-09-09T17:44:13.476Z,23.70
2018-09-09T17:46:44.400Z,23.57
2018-09-09T17:49:15.437Z,23.72
2018-09-09T17:51:46.436Z,23.51
2018-09-09T17:54:17.469Z,23.46
2018-09-09T17:56:48.475Z,23.26
2018-09-09T17:59:19.515Z,23.35
2018-09-09T18:01:50.493Z,23.26
2018-09-09T18:04:21.501Z,23.29
2018-09-09T18:06:52.617Z,23.16
2018-09-09T18:09:23.558Z,23.09
2018-09-09T18:11:54.477Z,23.01
2018-09-09T18:14:25.499Z,22.89
2018-09-09T18:16:56.485Z,22.84
2018-09-09T18:19:27.490Z,22.79
2018-09-09T18:21:58.519Z,22.78
2018-09-09T18:24:29.488Z,22.70
2018-09-09T18:27:00.465Z,22.66
2018-09-09T18:29:31.579Z,22.67
2018-09-09T18:32:02.507Z,22.56
2018-09-09T18:34:33.779Z,22.51
2018-09-09T18:37:04.711Z,22.51
2018-09-09T18:39:35.625Z,22.38
2018-09-09T18:42:06.515Z,22.39
2018-09-09T18:47:07.537Z,22.24
2018-09-09T18:49:38.476Z,22.21
2018-09-09T18:52:09.510Z,22.21
2018-09-09T18:54:40.503Z,22.11
2018-09-09T18:57:11.514Z,22.14
2018-09-09T18:59:42.497Z,21.95
2018-09-09T19:02:13.473Z,21.97
2018-09-09T19:04:44.501Z,21.87
2018-09-09T19:07:15.514Z,21.87
2018-09-09T19:09:46.480Z,21.82
2018-09-09T19:12:17.493Z,21.75
2018-09-09T19:14:49.389Z,21.71
2018-09-09T19:17:20.457Z,21.62
2018-09-09T19:19:51.462Z,21.49
2018-09-09T19:22:22.432Z,21.47
2018-09-09T19:24:53.583Z,21.42
2018-09-09T19:27:24.725Z,21.29
2018-09-09T19:29:55.564Z,21.25
2018-09-09T19:32:26.491Z,21.21
2018-09-09T19:34:57.722Z,21.13
2018-09-09T19:37:28.639Z,21.13
2018-09-09T19:39:59.619Z,21.09
2018-09-09T19:42:34.282Z,21.05
2018-09-09T19:45:06.313Z,20.95
2018-09-09T19:47:37.366Z,20.77
2018-09-09T19:50:08.457Z,20.80
2018-09-09T19:52:39.429Z,20.85
2018-09-09T19:55:10.515Z,20.86
2018-09-09T19:57:41.432Z,20.82
2018-09-09T20:00:12.482Z,20.56
2018-09-09T20:02:43.809Z,20.54
2018-09-09T20:05:14.584Z,20.55
2018-09-09T20:07:45.874Z,20.51
2018-09-09T20:10:16.677Z,20.46
2018-09-09T20:12:47.531Z,20.41
2018-09-09T20:15:18.472Z,20.36
2018-09-09T20:17:49.441Z,20.32
2018-09-09T20:20:20.448Z,20.22
2018-09-09T20:22:51.475Z,20.27
2018-09-09T20:25:22.434Z,20.15
2018-09-09T20:27:53.482Z,20.14
2018-09-09T20:30:24.486Z,20.08
2018-09-09T20:32:55.474Z,20.02
2018-09-09T20:35:26.454Z,20.05
2018-09-09T20:37:57.475Z,20.06
2018-09-09T20:40:28.537Z,20.03
2018-09-09T20:42:59.472Z,19.96
2018-09-09T20:45:30.489Z,19.92
2018-09-09T20:48:01.461Z,19.95
2018-09-09T20:50:32.440Z,19.82
2018-09-09T20:53:03.407Z,19.58
2018-09-09T20:55:34.479Z,19.44
2018-09-09T20:58:05.457Z,19.37
2018-09-09T21:00:36.469Z,19.36
2018-09-09T21:03:07.472Z,19.18
2018-09-09T21:05:38.456Z,19.06
2018-09-09T21:08:09.416Z,19.04
2018-09-09T21:10:40.474Z,19.06
2018-09-09T21:13:11.478Z,18.99
2018-09-09T21:15:42.449Z,18.95
2018-09-09T21:18:13.456Z,18.85
2018-09-09T21:20:44.429Z,18.63
2018-09-09T21:23:15.456Z,18.58
2018-09-09T21:25:46.518Z,18.51
2018-09-09T21:28:17.480Z,18.39
2018-09-09T21:30:48.494Z,18.44
2018-09-09T21:33:19.437Z,18.40
2018-09-09T21:35:50.521Z,18.29
2018-09-09T21:38:21.445Z,18.41
2018-09-09T21:43:32.473Z,18.35
2018-09-09T21:46:03.495Z,18.28
2018-09-09T21:48:34.436Z,18.02
2018-09-09T21:51:05.509Z,18.03
2018-09-09T21:53:36.456Z,18.00
2018-09-09T21:56:07.630Z,18.05
2018-09-09T21:58:38.480Z,17.87
2018-09-09T22:01:14.495Z,17.82
2018-09-09T22:03:45.449Z,17.81
2018-09-09T22:06:16.558Z,17.65
2018-09-09T22:08:47.485Z,17.59
2018-09-09T22:11:18.555Z,17.57
2018-09-09T22:13:49.472Z,17.50
2018-09-09T22:16:20.485Z,17.42
2018-09-09T22:18:51.501Z,17.44
2018-09-09T22:21:22.449Z,17.42
2018-09-09T22:23:53.453Z,17.39
2018-09-09T22:26:24.481Z,17.31
2018-09-09T22:28:55.465Z,17.31
2018-09-09T22:31:26.464Z,17.33
2018-09-09T22:33:57.471Z,17.20
2018-09-09T22:36:28.491Z,17.25
2018-09-09T22:38:59.466Z,17.18
2018-09-09T22:41:30.478Z,17.12
2018-09-09T22:44:01.492Z,17.13
2018-09-09T22:46:32.470Z,17.12
2018-09-09T22:49:03.499Z,16.91
2018-09-09T22:51:34.516Z,16.88
2018-09-09T22:54:05.584Z,17.01
2018-09-09T22:56:36.541Z,16.91
2018-09-09T22:59:07.512Z,16.93
2018-09-09T23:01:38.489Z,16.67
2018-09-09T23:04:09.531Z,16.65
2018-09-09T23:06:40.501Z,16.62
2018-09-09T23:09:13.013Z,16.69
2018-09-09T23:11:44.232Z,16.69
2018-09-09T23:14:15.340Z,16.75
2018-09-09T23:16:46.376Z,16.71
2018-09-09T23:19:17.389Z,16.56
2018-09-09T23:21:48.465Z,16.65
2018-09-09T23:24:19.446Z,16.56
2018-09-09T23:26:50.553Z,16.59
2018-09-09T23:29:21.445Z,16.60
2018-09-09T23:31:52.432Z,16.50
2018-09-09T23:34:23.425Z,16.54
2018-09-09T23:36:54.447Z,16.43
2018-09-09T23:39:25.524Z,16.36
2018-09-09T23:41:56.609Z,16.34
2018-09-09T23:44:27.460Z,16.28
2018-09-09T23:46:58.517Z,16.28
2018-09-09T23:49:29.444Z,16.18
2018-09-09T23:52:00.496Z,16.20
2018-09-09T23:54:31.442Z,16.05
2018-09-09T23:57:02.523Z,16.01
2018-09-09T23:59:34.469Z,15.90
